sensor_id;sensor_type;location;lat;lon;timestamp;temperature;humidity
19920;DHT22;10122;50.074;19.920;2022-09-27T00:00:51;10.90;99.90
19920;DHT22;10122;50.074;19.920;2022-09-27T00:03:17;10.80;99.90
19920;DHT22;10122;50.074;19.920;2022-09-27T00:05:42;10.80;99.90
19920;DHT22;10122;50.074;19.920;2022-09-27T00:08:08;10.80;99.90
19920;DHT22;10122;50.074;19.920;2022-09-27T00:10:34;10.80;99.90
19920;DHT22;10122;50.074;19.920;2022-09-27T00:12:59;10.80;99.90
19920;DHT22;10122;50.074;19.920;2022-09-27T00:15:25;10.70;99.90
19920;DHT22;10122;50.074;19.920;2022-09-27T00:17:50;10.70;99.90
19920;DHT22;10122;50.074;19.920;2022-09-27T00:20:17;10.60;99.90
19920;DHT22;10122;50.074;19.920;2022-09-27T00:22:45;10.60;99.90
19920;DHT22;10122;50.074;19.920;2022-09-27T00:25:11;10.60;99.90
19920;DHT22;10122;50.074;19.920;2022-09-27T00:27:37;10.50;99.90
19920;DHT22;10122;50.074;19.920;2022-09-27T00:30:02;10.50;99.90
19920;DHT22;10122;50.074;19.920;2022-09-27T00:32:28;10.50;99.90
19920;DHT22;10122;50.074;19.920;2022-09-27T00:34:54;10.50;99.90
19920;DHT22;10122;50.074;19.920;2022-09-27T00:37:19;10.50;99.90
19920;DHT22;10122;50.074;19.920;2022-09-27T00:39:45;10.50;99.90
19920;DHT22;10122;50.074;19.920;2022-09-27T00:42:11;10.40;99.90
19920;DHT22;10122;50.074;19.920;2022-09-27T00:49:54;10.40;99.90
19920;DHT22;10122;50.074;19.920;2022-09-27T00:52:47;10.40;99.90
19920;DHT22;10122;50.074;19.920;2022-09-27T00:55:22;10.40;99.90
19920;DHT22;10122;50.074;19.920;2022-09-27T00:57:49;10.30;99.90
19920;DHT22;10122;50.074;19.920;2022-09-27T01:00:16;10.20;99.90
19920;DHT22;10122;50.074;19.920;2022-09-27T01:02:50;10.20;99.90
19920;DHT22;10122;50.074;19.920;2022-09-27T01:05:18;10.20;99.90
19920;DHT22;10122;50.074;19.920;2022-09-27T01:07:45;10.20;99.90
19920;DHT22;10122;50.074;19.920;2022-09-27T01:10:12;10.20;99.90
19920;DHT22;10122;50.074;19.920;2022-09-27T01:15:50;10.10;99.90
19920;DHT22;10122;50.074;19.920;2022-09-27T01:32:32;10.00;99.90
19920;DHT22;10122;50.074;19.920;2022-09-27T01:35:13;10.00;99.90
19920;DHT22;10122;50.074;19.920;2022-09-27T01:40:19;9.90;99.90
19920;DHT22;10122;50.074;19.920;2022-09-27T01:43:06;9.90;99.90
19920;DHT22;10122;50.074;19.920;2022-09-27T01:45:55;9.90;99.90
19920;DHT22;10122;50.074;19.920;2022-09-27T01:48:25;9.90;99.90
19920;DHT22;10122;50.074;19.920;2022-09-27T01:51:05;9.90;99.90
19920;DHT22;10122;50.074;19.920;2022-09-27T01:53:38;9.90;99.90
19920;DHT22;10122;50.074;19.920;2022-09-27T01:56:09;10.00;99.90
19920;DHT22;10122;50.074;19.920;2022-09-27T01:58:53;9.90;99.90
19920;DHT22;10122;50.074;19.920;2022-09-27T02:01:23;9.90;99.90
19920;DHT22;10122;50.074;19.920;2022-09-27T02:03:52;9.90;99.90
19920;DHT22;10122;50.074;19.920;2022-09-27T02:06:29;9.80;99.90
19920;DHT22;10122;50.074;19.920;2022-09-27T02:11:26;9.70;99.90
19920;DHT22;10122;50.074;19.920;2022-09-27T02:14:16;9.70;99.90
19920;DHT22;10122;50.074;19.920;2022-09-27T02:20:22;9.50;99.90
19920;DHT22;10122;50.074;19.920;2022-09-27T02:25:56;9.50;99.90
19920;DHT22;10122;50.074;19.920;2022-09-27T02:28:39;9.60;99.90
19920;DHT22;10122;50.074;19.920;2022-09-27T02:31:07;9.70;99.90
19920;DHT22;10122;50.074;19.920;2022-09-27T02:34:00;9.70;99.90
19920;DHT22;10122;50.074;19.920;2022-09-27T02:36:27;9.70;99.90
19920;DHT22;10122;50.074;19.920;2022-09-27T02:38:53;9.60;99.90
19920;DHT22;10122;50.074;19.920;2022-09-27T02:41:20;9.60;99.90
19920;DHT22;10122;50.074;19.920;2022-09-27T02:43:53;9.60;99.90
19920;DHT22;10122;50.074;19.920;2022-09-27T02:52:31;9.60;99.90
19920;DHT22;10122;50.074;19.920;2022-09-27T02:55:29;9.60;99.90
19920;DHT22;10122;50.074;19.920;2022-09-27T02:58:10;9.50;99.90
19920;DHT22;10122;50.074;19.920;2022-09-27T03:03:25;9.30;99.90
19920;DHT22;10122;50.074;19.920;2022-09-27T03:06:08;9.20;99.90
19920;DHT22;10122;50.074;19.920;2022-09-27T03:08:36;9.20;99.90
19920;DHT22;10122;50.074;19.920;2022-09-27T03:11:03;9.20;99.90
19920;DHT22;10122;50.074;19.920;2022-09-27T03:13:28;9.20;99.90
19920;DHT22;10122;50.074;19.920;2022-09-27T03:15:54;9.20;99.90
19920;DHT22;10122;50.074;19.920;2022-09-27T03:18:20;9.20;99.90
19920;DHT22;10122;50.074;19.920;2022-09-27T03:20:46;9.30;99.90
19920;DHT22;10122;50.074;19.920;2022-09-27T03:23:11;9.30;99.90
19920;DHT22;10122;50.074;19.920;2022-09-27T03:25:37;9.40;99.90
19920;DHT22;10122;50.074;19.920;2022-09-27T03:28:03;9.40;99.90
19920;DHT22;10122;50.074;19.920;2022-09-27T03:30:29;9.40;99.90
19920;DHT22;10122;50.074;19.920;2022-09-27T03:32:54;9.50;99.90
19920;DHT22;10122;50.074;19.920;2022-09-27T03:35:20;9.50;99.90
19920;DHT22;10122;50.074;19.920;2022-09-27T03:37:46;9.40;99.90
19920;DHT22;10122;50.074;19.920;2022-09-27T03:40:12;9.40;99.90
19920;DHT22;10122;50.074;19.920;2022-09-27T03:42:38;9.40;99.90
19920;DHT22;10122;50.074;19.920;2022-09-27T03:45:04;9.40;99.90
19920;DHT22;10122;50.074;19.920;2022-09-27T03:47:30;9.30;99.90
19920;DHT22;10122;50.074;19.920;2022-09-27T03:49:56;9.10;99.90
19920;DHT22;10122;50.074;19.920;2022-09-27T03:52:21;8.90;99.90
19920;DHT22;10122;50.074;19.920;2022-09-27T03:54:47;8.80;99.90
19920;DHT22;10122;50.074;19.920;2022-09-27T03:57:12;8.70;99.90
19920;DHT22;10122;50.074;19.920;2022-09-27T03:59:38;8.70;99.90
19920;DHT22;10122;50.074;19.920;2022-09-27T04:02:04;8.70;99.90
19920;DHT22;10122;50.074;19.920;2022-09-27T04:04:29;8.70;99.90
19920;DHT22;10122;50.074;19.920;2022-09-27T04:06:55;8.70;99.90
19920;DHT22;10122;50.074;19.920;2022-09-27T04:09:22;8.60;99.90
19920;DHT22;10122;50.074;19.920;2022-09-27T04:11:47;8.50;99.90
19920;DHT22;10122;50.074;19.920;2022-09-27T04:14:13;8.50;99.90
19920;DHT22;10122;50.074;19.920;2022-09-27T04:16:39;8.60;99.90
19920;DHT22;10122;50.074;19.920;2022-09-27T04:19:06;8.70;99.90
19920;DHT22;10122;50.074;19.920;2022-09-27T04:21:32;8.80;99.90
19920;DHT22;10122;50.074;19.920;2022-09-27T04:23:58;8.90;99.90
19920;DHT22;10122;50.074;19.920;2022-09-27T04:26:24;8.80;99.90
19920;DHT22;10122;50.074;19.920;2022-09-27T04:28:51;8.80;99.90
19920;DHT22;10122;50.074;19.920;2022-09-27T04:31:17;8.80;99.90
19920;DHT22;10122;50.074;19.920;2022-09-27T04:33:43;8.80;99.90
19920;DHT22;10122;50.074;19.920;2022-09-27T04:36:16;8.80;99.90
19920;DHT22;10122;50.074;19.920;2022-09-27T04:38:54;8.80;99.90
19920;DHT22;10122;50.074;19.920;2022-09-27T04:41:21;8.90;99.90
19920;DHT22;10122;50.074;19.920;2022-09-27T04:43:48;8.90;99.90
19920;DHT22;10122;50.074;19.920;2022-09-27T04:46:15;8.80;99.90
19920;DHT22;10122;50.074;19.920;2022-09-27T04:48:40;8.80;99.90
19920;DHT22;10122;50.074;19.920;2022-09-27T04:51:06;8.90;99.90
19920;DHT22;10122;50.074;19.920;2022-09-27T04:53:32;8.90;99.90
19920;DHT22;10122;50.074;19.920;2022-09-27T04:55:58;9.00;99.90
19920;DHT22;10122;50.074;19.920;2022-09-27T04:58:32;9.10;99.90
19920;DHT22;10122;50.074;19.920;2022-09-27T05:00:59;9.20;99.90
19920;DHT22;10122;50.074;19.920;2022-09-27T05:03:24;9.20;99.90
19920;DHT22;10122;50.074;19.920;2022-09-27T05:05:51;9.20;99.90
19920;DHT22;10122;50.074;19.920;2022-09-27T05:08:16;9.30;99.90
19920;DHT22;10122;50.074;19.920;2022-09-27T05:10:42;9.30;99.90
19920;DHT22;10122;50.074;19.920;2022-09-27T05:13:07;9.30;99.90
19920;DHT22;10122;50.074;19.920;2022-09-27T05:15:33;9.30;99.90
19920;DHT22;10122;50.074;19.920;2022-09-27T05:18:00;9.30;99.90
19920;DHT22;10122;50.074;19.920;2022-09-27T05:20:26;9.30;99.90
19920;DHT22;10122;50.074;19.920;2022-09-27T05:22:51;9.30;99.90
19920;DHT22;10122;50.074;19.920;2022-09-27T05:25:17;9.30;99.90
19920;DHT22;10122;50.074;19.920;2022-09-27T05:27:43;9.30;99.90
19920;DHT22;10122;50.074;19.920;2022-09-27T05:30:09;9.30;99.90
19920;DHT22;10122;50.074;19.920;2022-09-27T05:32:37;9.40;99.90
19920;DHT22;10122;50.074;19.920;2022-09-27T05:35:06;9.40;99.90
19920;DHT22;10122;50.074;19.920;2022-09-27T05:37:31;9.50;99.90
19920;DHT22;10122;50.074;19.920;2022-09-27T05:39:58;9.40;99.90
19920;DHT22;10122;50.074;19.920;2022-09-27T05:42:24;9.40;99.90
19920;DHT22;10122;50.074;19.920;2022-09-27T05:44:49;9.40;99.90
19920;DHT22;10122;50.074;19.920;2022-09-27T05:47:15;9.40;99.90
19920;DHT22;10122;50.074;19.920;2022-09-27T05:49:41;9.50;99.90
19920;DHT22;10122;50.074;19.920;2022-09-27T05:52:06;9.40;99.90
19920;DHT22;10122;50.074;19.920;2022-09-27T05:54:32;9.30;99.90
19920;DHT22;10122;50.074;19.920;2022-09-27T05:56:58;9.30;99.90
19920;DHT22;10122;50.074;19.920;2022-09-27T05:59:25;9.30;99.90
19920;DHT22;10122;50.074;19.920;2022-09-27T06:01:52;9.30;99.90
19920;DHT22;10122;50.074;19.920;2022-09-27T06:04:19;9.30;99.90
19920;DHT22;10122;50.074;19.920;2022-09-27T06:06:45;9.30;99.90
19920;DHT22;10122;50.074;19.920;2022-09-27T06:09:12;9.40;99.90
19920;DHT22;10122;50.074;19.920;2022-09-27T06:11:38;9.50;99.90
19920;DHT22;10122;50.074;19.920;2022-09-27T06:14:04;9.70;99.90
19920;DHT22;10122;50.074;19.920;2022-09-27T06:16:29;9.80;99.90
19920;DHT22;10122;50.074;19.920;2022-09-27T06:18:55;9.90;99.90
19920;DHT22;10122;50.074;19.920;2022-09-27T06:21:22;10.00;99.90
19920;DHT22;10122;50.074;19.920;2022-09-27T06:23:48;10.20;99.90
19920;DHT22;10122;50.074;19.920;2022-09-27T06:26:14;10.30;99.90
19920;DHT22;10122;50.074;19.920;2022-09-27T06:28:40;10.40;99.90
19920;DHT22;10122;50.074;19.920;2022-09-27T06:31:06;10.60;99.90
19920;DHT22;10122;50.074;19.920;2022-09-27T06:33:33;10.70;99.90
19920;DHT22;10122;50.074;19.920;2022-09-27T06:36:04;10.60;99.90
19920;DHT22;10122;50.074;19.920;2022-09-27T06:38:30;10.60;99.90
19920;DHT22;10122;50.074;19.920;2022-09-27T06:41:00;10.60;99.90
19920;DHT22;10122;50.074;19.920;2022-09-27T06:43:26;10.70;99.90
19920;DHT22;10122;50.074;19.920;2022-09-27T06:45:52;10.90;99.90
19920;DHT22;10122;50.074;19.920;2022-09-27T06:48:19;11.10;99.90
19920;DHT22;10122;50.074;19.920;2022-09-27T06:50:46;11.20;99.90
19920;DHT22;10122;50.074;19.920;2022-09-27T06:53:14;11.30;99.90
19920;DHT22;10122;50.074;19.920;2022-09-27T06:55:41;11.40;99.90
19920;DHT22;10122;50.074;19.920;2022-09-27T06:58:09;11.60;99.90
19920;DHT22;10122;50.074;19.920;2022-09-27T07:01:07;11.70;99.90
19920;DHT22;10122;50.074;19.920;2022-09-27T07:03:33;11.70;99.90
19920;DHT22;10122;50.074;19.920;2022-09-27T07:06:03;11.80;99.90
19920;DHT22;10122;50.074;19.920;2022-09-27T07:08:29;11.90;99.90
19920;DHT22;10122;50.074;19.920;2022-09-27T07:10:59;12.10;99.90
19920;DHT22;10122;50.074;19.920;2022-09-27T07:13:27;12.20;99.90
19920;DHT22;10122;50.074;19.920;2022-09-27T07:15:55;12.40;99.90
19920;DHT22;10122;50.074;19.920;2022-09-27T07:18:21;12.60;99.90
19920;DHT22;10122;50.074;19.920;2022-09-27T07:20:47;12.80;99.90
19920;DHT22;10122;50.074;19.920;2022-09-27T07:23:13;12.90;99.90
19920;DHT22;10122;50.074;19.920;2022-09-27T07:25:39;13.00;99.90
19920;DHT22;10122;50.074;19.920;2022-09-27T07:28:06;13.10;99.90
19920;DHT22;10122;50.074;19.920;2022-09-27T07:30:33;13.30;99.90
19920;DHT22;10122;50.074;19.920;2022-09-27T07:33:00;13.60;99.90
19920;DHT22;10122;50.074;19.920;2022-09-27T07:35:27;13.70;99.90
19920;DHT22;10122;50.074;19.920;2022-09-27T07:37:54;13.80;99.90
19920;DHT22;10122;50.074;19.920;2022-09-27T07:40:20;14.00;99.90
19920;DHT22;10122;50.074;19.920;2022-09-27T07:42:46;14.20;99.90
19920;DHT22;10122;50.074;19.920;2022-09-27T07:45:12;14.40;99.90
19920;DHT22;10122;50.074;19.920;2022-09-27T07:47:39;14.60;99.90
19920;DHT22;10122;50.074;19.920;2022-09-27T07:50:07;14.90;99.90
19920;DHT22;10122;50.074;19.920;2022-09-27T07:52:42;15.10;99.90
19920;DHT22;10122;50.074;19.920;2022-09-27T07:55:09;15.30;99.90
19920;DHT22;10122;50.074;19.920;2022-09-27T07:57:36;15.50;99.90
19920;DHT22;10122;50.074;19.920;2022-09-27T08:00:04;15.60;99.90
19920;DHT22;10122;50.074;19.920;2022-09-27T08:02:30;15.70;99.90
19920;DHT22;10122;50.074;19.920;2022-09-27T08:04:58;15.90;99.90
19920;DHT22;10122;50.074;19.920;2022-09-27T08:07:24;16.10;99.90
19920;DHT22;10122;50.074;19.920;2022-09-27T08:09:49;16.20;99.90
19920;DHT22;10122;50.074;19.920;2022-09-27T08:12:15;16.30;99.90
19920;DHT22;10122;50.074;19.920;2022-09-27T08:14:41;16.50;99.90
19920;DHT22;10122;50.074;19.920;2022-09-27T08:17:09;16.70;99.90
19920;DHT22;10122;50.074;19.920;2022-09-27T08:19:35;16.70;99.90
19920;DHT22;10122;50.074;19.920;2022-09-27T08:22:02;16.90;99.90
19920;DHT22;10122;50.074;19.920;2022-09-27T08:24:27;16.90;99.90
19920;DHT22;10122;50.074;19.920;2022-09-27T08:26:53;17.00;99.90
19920;DHT22;10122;50.074;19.920;2022-09-27T08:29:19;17.10;99.90
19920;DHT22;10122;50.074;19.920;2022-09-27T08:31:45;17.40;99.90
19920;DHT22;10122;50.074;19.920;2022-09-27T08:34:10;17.70;99.90
19920;DHT22;10122;50.074;19.920;2022-09-27T08:36:36;17.80;99.90
19920;DHT22;10122;50.074;19.920;2022-09-27T08:39:03;17.90;99.90
19920;DHT22;10122;50.074;19.920;2022-09-27T08:47:15;18.20;99.90
19920;DHT22;10122;50.074;19.920;2022-09-27T08:49:43;18.40;99.90
19920;DHT22;10122;50.074;19.920;2022-09-27T08:52:39;18.60;99.90
19920;DHT22;10122;50.074;19.920;2022-09-27T08:55:20;18.60;99.90
19920;DHT22;10122;50.074;19.920;2022-09-27T08:57:50;18.60;99.90
19920;DHT22;10122;50.074;19.920;2022-09-27T09:00:17;18.60;99.90
19920;DHT22;10122;50.074;19.920;2022-09-27T09:02:43;18.70;99.90
19920;DHT22;10122;50.074;19.920;2022-09-27T09:05:13;18.70;99.90
19920;DHT22;10122;50.074;19.920;2022-09-27T09:16:34;19.40;99.90
19920;DHT22;10122;50.074;19.920;2022-09-27T09:25:26;19.60;99.90
19920;DHT22;10122;50.074;19.920;2022-09-27T09:30:58;19.70;99.90
19920;DHT22;10122;50.074;19.920;2022-09-27T09:33:37;19.90;99.90
19920;DHT22;10122;50.074;19.920;2022-09-27T09:38:53;20.10;99.90
19920;DHT22;10122;50.074;19.920;2022-09-27T09:41:42;20.20;99.90
19920;DHT22;10122;50.074;19.920;2022-09-27T09:44:25;20.20;99.90
19920;DHT22;10122;50.074;19.920;2022-09-27T09:46:54;20.10;99.90
19920;DHT22;10122;50.074;19.920;2022-09-27T09:49:27;20.10;99.90
19920;DHT22;10122;50.074;19.920;2022-09-27T09:52:00;20.20;99.90
19920;DHT22;10122;50.074;19.920;2022-09-27T10:00:04;20.10;99.90
19920;DHT22;10122;50.074;19.920;2022-09-27T10:02:34;20.10;99.90
19920;DHT22;10122;50.074;19.920;2022-09-27T10:05:01;20.10;99.90
19920;DHT22;10122;50.074;19.920;2022-09-27T10:07:28;19.90;99.90
19920;DHT22;10122;50.074;19.920;2022-09-27T10:09:57;19.70;99.90
19920;DHT22;10122;50.074;19.920;2022-09-27T10:12:24;19.70;99.90
19920;DHT22;10122;50.074;19.920;2022-09-27T10:14:51;19.80;99.90
19920;DHT22;10122;50.074;19.920;2022-09-27T10:17:24;19.80;99.90
19920;DHT22;10122;50.074;19.920;2022-09-27T10:19:50;19.90;99.90
19920;DHT22;10122;50.074;19.920;2022-09-27T10:22:34;19.90;99.90
19920;DHT22;10122;50.074;19.920;2022-09-27T10:25:03;19.80;99.90
19920;DHT22;10122;50.074;19.920;2022-09-27T10:27:52;19.90;99.90
19920;DHT22;10122;50.074;19.920;2022-09-27T10:30:30;19.70;99.90
19920;DHT22;10122;50.074;19.920;2022-09-27T10:33:03;19.50;99.90
19920;DHT22;10122;50.074;19.920;2022-09-27T10:35:36;19.60;99.90
19920;DHT22;10122;50.074;19.920;2022-09-27T10:40:51;19.50;99.90
19920;DHT22;10122;50.074;19.920;2022-09-27T10:43:33;19.50;99.90
19920;DHT22;10122;50.074;19.920;2022-09-27T10:48:34;19.40;99.90
19920;DHT22;10122;50.074;19.920;2022-09-27T10:51:04;19.40;99.90
19920;DHT22;10122;50.074;19.920;2022-09-27T10:53:31;19.40;99.90
19920;DHT22;10122;50.074;19.920;2022-09-27T10:55:58;19.40;99.90
19920;DHT22;10122;50.074;19.920;2022-09-27T10:58:32;19.50;99.90
19920;DHT22;10122;50.074;19.920;2022-09-27T11:01:04;19.60;99.90
19920;DHT22;10122;50.074;19.920;2022-09-27T11:03:32;19.70;99.90
19920;DHT22;10122;50.074;19.920;2022-09-27T11:06:38;19.80;99.90
19920;DHT22;10122;50.074;19.920;2022-09-27T11:09:19;19.60;99.90
19920;DHT22;10122;50.074;19.920;2022-09-27T11:11:47;19.70;99.90
19920;DHT22;10122;50.074;19.920;2022-09-27T11:14:19;19.80;99.90
19920;DHT22;10122;50.074;19.920;2022-09-27T11:17:05;19.80;99.90
19920;DHT22;10122;50.074;19.920;2022-09-27T11:25:33;20.00;99.90
19920;DHT22;10122;50.074;19.920;2022-09-27T11:28:20;20.10;99.90
19920;DHT22;10122;50.074;19.920;2022-09-27T11:31:10;19.80;99.90
19920;DHT22;10122;50.074;19.920;2022-09-27T11:33:48;19.80;99.90
19920;DHT22;10122;50.074;19.920;2022-09-27T11:39:02;20.10;99.90
19920;DHT22;10122;50.074;19.920;2022-09-27T11:41:37;20.00;99.90
19920;DHT22;10122;50.074;19.920;2022-09-27T11:50:11;20.00;99.90
19920;DHT22;10122;50.074;19.920;2022-09-27T11:55:48;20.00;99.90
19920;DHT22;10122;50.074;19.920;2022-09-27T11:58:22;20.00;99.90
19920;DHT22;10122;50.074;19.920;2022-09-27T12:01:09;20.10;99.90
19920;DHT22;10122;50.074;19.920;2022-09-27T12:09:29;20.30;99.90
19920;DHT22;10122;50.074;19.920;2022-09-27T12:12:04;20.20;99.90
19920;DHT22;10122;50.074;19.920;2022-09-27T12:14:57;20.30;99.90
19920;DHT22;10122;50.074;19.920;2022-09-27T12:17:38;20.20;99.90
19920;DHT22;10122;50.074;19.920;2022-09-27T12:20:13;20.30;99.90
19920;DHT22;10122;50.074;19.920;2022-09-27T12:22:57;20.40;99.90
19920;DHT22;10122;50.074;19.920;2022-09-27T12:25:28;20.40;99.90
19920;DHT22;10122;50.074;19.920;2022-09-27T12:30:53;20.40;99.90
19920;DHT22;10122;50.074;19.920;2022-09-27T12:33:45;20.50;99.90
19920;DHT22;10122;50.074;19.920;2022-09-27T12:36:16;20.50;99.90
19920;DHT22;10122;50.074;19.920;2022-09-27T12:38:52;20.50;99.90
19920;DHT22;10122;50.074;19.920;2022-09-27T12:41:22;20.40;99.90
19920;DHT22;10122;50.074;19.920;2022-09-27T12:43:49;20.50;99.90
19920;DHT22;10122;50.074;19.920;2022-09-27T12:51:46;20.50;99.90
19920;DHT22;10122;50.074;19.920;2022-09-27T12:54:30;20.50;99.90
19920;DHT22;10122;50.074;19.920;2022-09-27T13:08:21;20.50;99.90
19920;DHT22;10122;50.074;19.920;2022-09-27T13:11:23;20.50;99.90
19920;DHT22;10122;50.074;19.920;2022-09-27T13:13:54;20.50;99.90
19920;DHT22;10122;50.074;19.920;2022-09-27T13:16:21;20.50;99.90
19920;DHT22;10122;50.074;19.920;2022-09-27T13:32:36;20.30;99.90
19920;DHT22;10122;50.074;19.920;2022-09-27T13:35:23;20.10;99.90
19920;DHT22;10122;50.074;19.920;2022-09-27T13:37:52;20.00;99.90
19920;DHT22;10122;50.074;19.920;2022-09-27T13:45:37;19.60;99.90
19920;DHT22;10122;50.074;19.920;2022-09-27T13:48:18;19.50;99.90
19920;DHT22;10122;50.074;19.920;2022-09-27T13:50:56;19.30;99.90
19920;DHT22;10122;50.074;19.920;2022-09-27T13:53:33;19.40;99.90
19920;DHT22;10122;50.074;19.920;2022-09-27T13:56:00;19.40;99.90
19920;DHT22;10122;50.074;19.920;2022-09-27T14:00:59;19.60;99.90
19920;DHT22;10122;50.074;19.920;2022-09-27T14:03:32;19.60;99.90
19920;DHT22;10122;50.074;19.920;2022-09-27T14:06:05;19.50;99.90
19920;DHT22;10122;50.074;19.920;2022-09-27T14:08:33;19.40;99.90
19920;DHT22;10122;50.074;19.920;2022-09-27T14:11:02;19.40;99.90
19920;DHT22;10122;50.074;19.920;2022-09-27T14:13:30;19.30;99.90
19920;DHT22;10122;50.074;19.920;2022-09-27T14:15:58;19.30;99.90
19920;DHT22;10122;50.074;19.920;2022-09-27T14:18:24;19.10;99.90
19920;DHT22;10122;50.074;19.920;2022-09-27T14:20:51;19.00;99.90
19920;DHT22;10122;50.074;19.920;2022-09-27T14:23:20;19.00;99.90
19920;DHT22;10122;50.074;19.920;2022-09-27T14:25:48;19.10;99.90
19920;DHT22;10122;50.074;19.920;2022-09-27T14:28:26;19.10;99.90
19920;DHT22;10122;50.074;19.920;2022-09-27T14:31:15;19.10;99.90
19920;DHT22;10122;50.074;19.920;2022-09-27T14:33:43;19.00;99.90
19920;DHT22;10122;50.074;19.920;2022-09-27T14:39:14;19.00;99.90
19920;DHT22;10122;50.074;19.920;2022-09-27T14:41:40;19.00;99.90
19920;DHT22;10122;50.074;19.920;2022-09-27T14:44:14;19.10;99.90
19920;DHT22;10122;50.074;19.920;2022-09-27T14:46:40;19.10;99.90
19920;DHT22;10122;50.074;19.920;2022-09-27T14:49:20;19.10;99.90
19920;DHT22;10122;50.074;19.920;2022-09-27T14:51:55;19.20;99.90
19920;DHT22;10122;50.074;19.920;2022-09-27T14:54:30;19.30;99.90
19920;DHT22;10122;50.074;19.920;2022-09-27T14:56:57;19.30;99.90
19920;DHT22;10122;50.074;19.920;2022-09-27T14:59:26;19.40;99.90
19920;DHT22;10122;50.074;19.920;2022-09-27T15:01:58;19.40;99.90
19920;DHT22;10122;50.074;19.920;2022-09-27T15:04:26;19.50;99.90
19920;DHT22;10122;50.074;19.920;2022-09-27T15:06:53;19.50;99.90
19920;DHT22;10122;50.074;19.920;2022-09-27T15:09:19;19.40;99.90
19920;DHT22;10122;50.074;19.920;2022-09-27T15:11:50;19.40;99.90
19920;DHT22;10122;50.074;19.920;2022-09-27T15:14:19;19.40;99.90
19920;DHT22;10122;50.074;19.920;2022-09-27T15:16:48;19.40;99.90
19920;DHT22;10122;50.074;19.920;2022-09-27T15:19:23;19.40;99.90
19920;DHT22;10122;50.074;19.920;2022-09-27T15:21:50;19.40;99.90
19920;DHT22;10122;50.074;19.920;2022-09-27T15:24:44;19.30;99.90
19920;DHT22;10122;50.074;19.920;2022-09-27T15:27:18;19.10;99.90
19920;DHT22;10122;50.074;19.920;2022-09-27T15:30:04;18.80;99.90
19920;DHT22;10122;50.074;19.920;2022-09-27T15:32:30;18.60;99.90
19920;DHT22;10122;50.074;19.920;2022-09-27T15:34:56;18.50;99.90
19920;DHT22;10122;50.074;19.920;2022-09-27T15:37:37;18.50;99.90
19920;DHT22;10122;50.074;19.920;2022-09-27T15:43:01;18.20;99.90
19920;DHT22;10122;50.074;19.920;2022-09-27T15:45:32;18.10;99.90
19920;DHT22;10122;50.074;19.920;2022-09-27T15:48:13;18.00;99.90
19920;DHT22;10122;50.074;19.920;2022-09-27T15:50:38;17.90;99.90
19920;DHT22;10122;50.074;19.920;2022-09-27T15:53:06;17.90;99.90
19920;DHT22;10122;50.074;19.920;2022-09-27T15:55:38;17.80;99.90
19920;DHT22;10122;50.074;19.920;2022-09-27T15:58:06;17.70;99.90
19920;DHT22;10122;50.074;19.920;2022-09-27T16:00:33;17.70;99.90
19920;DHT22;10122;50.074;19.920;2022-09-27T16:03:00;17.60;99.90
19920;DHT22;10122;50.074;19.920;2022-09-27T16:05:26;17.50;99.90
19920;DHT22;10122;50.074;19.920;2022-09-27T16:07:52;17.50;99.90
19920;DHT22;10122;50.074;19.920;2022-09-27T16:10:19;17.40;99.90
19920;DHT22;10122;50.074;19.920;2022-09-27T16:12:45;17.30;99.90
19920;DHT22;10122;50.074;19.920;2022-09-27T16:15:12;17.40;99.90
19920;DHT22;10122;50.074;19.920;2022-09-27T16:17:38;17.30;99.90
19920;DHT22;10122;50.074;19.920;2022-09-27T16:20:10;17.30;99.90
19920;DHT22;10122;50.074;19.920;2022-09-27T16:22:39;17.30;99.90
19920;DHT22;10122;50.074;19.920;2022-09-27T16:25:05;17.30;99.90
19920;DHT22;10122;50.074;19.920;2022-09-27T16:27:30;17.30;99.90
19920;DHT22;10122;50.074;19.920;2022-09-27T16:29:56;17.30;99.90
19920;DHT22;10122;50.074;19.920;2022-09-27T16:32:22;17.20;99.90
19920;DHT22;10122;50.074;19.920;2022-09-27T16:34:49;17.00;99.90
19920;DHT22;10122;50.074;19.920;2022-09-27T16:37:15;17.00;99.90
19920;DHT22;10122;50.074;19.920;2022-09-27T16:39:40;16.90;99.90
19920;DHT22;10122;50.074;19.920;2022-09-27T16:42:06;16.80;99.90
19920;DHT22;10122;50.074;19.920;2022-09-27T16:44:33;16.70;99.90
19920;DHT22;10122;50.074;19.920;2022-09-27T16:47:00;16.70;99.90
19920;DHT22;10122;50.074;19.920;2022-09-27T16:49:26;16.60;99.90
19920;DHT22;10122;50.074;19.920;2022-09-27T16:52:10;16.60;99.90
19920;DHT22;10122;50.074;19.920;2022-09-27T16:54:36;16.60;99.90
19920;DHT22;10122;50.074;19.920;2022-09-27T16:57:02;16.40;99.90
19920;DHT22;10122;50.074;19.920;2022-09-27T16:59:27;16.50;99.90
19920;DHT22;10122;50.074;19.920;2022-09-27T17:01:53;16.60;99.90
19920;DHT22;10122;50.074;19.920;2022-09-27T17:04:23;16.60;99.90
19920;DHT22;10122;50.074;19.920;2022-09-27T17:06:50;16.70;99.90
19920;DHT22;10122;50.074;19.920;2022-09-27T17:09:15;16.70;99.90
19920;DHT22;10122;50.074;19.920;2022-09-27T17:11:41;16.70;99.90
19920;DHT22;10122;50.074;19.920;2022-09-27T17:14:12;16.80;99.90
19920;DHT22;10122;50.074;19.920;2022-09-27T17:16:46;16.80;99.90
19920;DHT22;10122;50.074;19.920;2022-09-27T17:19:13;16.70;99.90
19920;DHT22;10122;50.074;19.920;2022-09-27T17:21:39;16.60;99.90
19920;DHT22;10122;50.074;19.920;2022-09-27T17:24:05;16.40;99.90
19920;DHT22;10122;50.074;19.920;2022-09-27T17:26:31;16.20;99.90
19920;DHT22;10122;50.074;19.920;2022-09-27T17:28:58;16.20;99.90
19920;DHT22;10122;50.074;19.920;2022-09-27T17:31:26;16.20;99.90
19920;DHT22;10122;50.074;19.920;2022-09-27T17:33:52;16.10;99.90
19920;DHT22;10122;50.074;19.920;2022-09-27T17:36:26;15.90;99.90
19920;DHT22;10122;50.074;19.920;2022-09-27T17:38:54;15.80;99.90
19920;DHT22;10122;50.074;19.920;2022-09-27T17:41:21;15.70;99.90
19920;DHT22;10122;50.074;19.920;2022-09-27T17:43:59;15.80;99.90
19920;DHT22;10122;50.074;19.920;2022-09-27T17:46:27;15.80;99.90
19920;DHT22;10122;50.074;19.920;2022-09-27T17:48:53;15.80;99.90
19920;DHT22;10122;50.074;19.920;2022-09-27T17:51:39;15.80;99.90
19920;DHT22;10122;50.074;19.920;2022-09-27T17:54:07;15.80;99.90
19920;DHT22;10122;50.074;19.920;2022-09-27T17:56:40;15.90;99.90
19920;DHT22;10122;50.074;19.920;2022-09-27T17:59:07;16.00;99.90
19920;DHT22;10122;50.074;19.920;2022-09-27T18:01:33;16.00;99.90
19920;DHT22;10122;50.074;19.920;2022-09-27T18:04:02;15.90;99.90
19920;DHT22;10122;50.074;19.920;2022-09-27T18:06:29;15.80;99.90
19920;DHT22;10122;50.074;19.920;2022-09-27T18:08:55;15.70;99.90